Time;durP1;ratioP1;P1;durP2;ratioP2;P2;SDS_P1;SDS_P2;PMS_P1;PMS_P2;Temp;Humidity;BMP_temperature;BMP_pressure;BME280_temperature;BME280_humidity;BME280_pressure;Samples;Min_cycle;Max_cycle;Signal;HPM_P1;HPM_P2
2024/01/15 00:00:34;;;;;;;220.68;110.70;;;;;;;;;;6292854;28;24445;-69
2024/01/15 00:03:35;;;;;;;197.90;98.32;;;;;;;;;;6277198;28;24804;-63
2024/01/15 00:06:37;;;;;;;208.05;100.07;;;;;;;;;;6288493;28;24874;-62
2024/01/15 00:09:39;;;;;;;186.50;89.30;;;;;;;;;;6272363;28;24476;-63
2024/01/15 00:12:41;;;;;;;151.15;74.60;;;;;;;;;;6292019;28;24430;-62
2024/01/15 00:15:44;;;;;;;152.32;74.38;;;;;;;;;;6289566;28;24438;-62
2024/01/15 00:18:46;;;;;;;130.95;66.50;;;;;;;;;;6293194;28;24426;-62
2024/01/15 00:21:48;;;;;;;95.88;52.42;;;;;;;;;;6289261;28;24430;-63
2024/01/15 00:24:49;;;;;;;79.05;45.08;;;;;;;;;;6288954;28;24668;-63
2024/01/15 00:27:51;;;;;;;70.28;41.35;;;;;;;;;;6289657;28;24446;-62
2024/01/15 00:30:54;;;;;;;70.90;41.03;;;;;;;;;;6289399;28;24424;-62
2024/01/15 00:33:57;;;;;;;71.57;40.97;;;;;;;;;;6291469;28;24470;-64
2024/01/15 00:36:59;;;;;;;68.65;40.47;;;;;;;;;;6293317;28;24427;-63
2024/01/15 00:40:01;;;;;;;70.20;40.33;;;;;;;;;;6288578;28;24442;-63
2024/01/15 00:43:03;;;;;;;71.85;40.88;;;;;;;;;;6288123;28;24673;-63
2024/01/15 00:46:06;;;;;;;72.17;41.13;;;;;;;;;;6291632;28;24567;-63
2024/01/15 00:49:08;;;;;;;70.80;42.50;;;;;;;;;;6291025;28;24439;-62
2024/01/15 00:52:09;;;;;;;70.75;41.60;;;;;;;;;;6289678;28;24435;-62
2024/01/15 00:55:11;;;;;;;68.27;41.63;;;;;;;;;;6290276;28;24523;-62
2024/01/15 00:58:13;;;;;;;71.60;42.03;;;;;;;;;;6290621;28;24435;-62
2024/01/15 01:01:16;;;;;;;71.75;41.78;;;;;;;;;;6291745;28;24434;-62
2024/01/15 01:04:18;;;;;;;67.05;40.83;;;;;;;;;;6289125;28;24419;-62
2024/01/15 01:07:20;;;;;;;70.53;41.57;;;;;;;;;;6292223;28;24418;-63
2024/01/15 01:10:22;;;;;;;69.25;41.22;;;;;;;;;;6288680;28;24476;-62
2024/01/15 01:13:24;;;;;;;71.47;42.33;;;;;;;;;;6273831;28;24422;-62
2024/01/15 01:16:27;;;;;;;72.07;41.50;;;;;;;;;;6289168;28;24660;-63
2024/01/15 01:19:30;;;;;;;70.50;41.83;;;;;;;;;;6294191;28;24430;-62
2024/01/15 01:22:32;;;;;;;70.07;41.80;;;;;;;;;;6293914;28;24446;-62
2024/01/15 01:25:33;;;;;;;68.43;40.58;;;;;;;;;;6291955;28;24435;-63
2024/01/15 01:28:35;;;;;;;69.13;40.80;;;;;;;;;;6293601;28;24415;-63
2024/01/15 01:31:43;;;;;;;70.70;42.63;;;;;;;;;;6293953;28;24468;-62
2024/01/15 01:34:45;;;;;;;68.38;40.83;;;;;;;;;;6294163;28;24828;-62
2024/01/15 01:37:47;;;;;;;72.87;42.67;;;;;;;;;;6291413;28;24419;-62
2024/01/15 01:40:48;;;;;;;72.15;42.63;;;;;;;;;;6292718;28;25140;-62
2024/01/15 01:43:50;;;;;;;72.18;43.20;;;;;;;;;;6291217;28;24426;-62
2024/01/15 01:46:54;;;;;;;71.18;42.13;;;;;;;;;;6290464;28;24415;-62
2024/01/15 01:49:56;;;;;;;72.22;42.72;;;;;;;;;;6292349;28;24434;-62
2024/01/15 01:52:57;;;;;;;72.15;43.35;;;;;;;;;;6292827;28;24426;-63
2024/01/15 01:55:59;;;;;;;69.83;42.80;;;;;;;;;;6294016;28;24415;-62
2024/01/15 01:59:01;;;;;;;73.38;42.97;;;;;;;;;;6295577;28;24484;-62
2024/01/15 02:02:05;;;;;;;77.60;43.58;;;;;;;;;;6292399;28;24441;-62
2024/01/15 02:05:07;;;;;;;71.60;43.42;;;;;;;;;;6295455;28;24427;-62
2024/01/15 02:08:09;;;;;;;70.67;42.33;;;;;;;;;;6277125;28;24490;-62
2024/01/15 02:11:12;;;;;;;68.50;42.15;;;;;;;;;;6291909;28;24416;-61
2024/01/15 02:14:14;;;;;;;73.87;43.57;;;;;;;;;;6294883;28;24438;-63
2024/01/15 02:17:17;;;;;;;72.07;43.83;;;;;;;;;;6294205;28;24466;-62
2024/01/15 02:20:18;;;;;;;70.67;42.47;;;;;;;;;;6292539;28;24473;-62
2024/01/15 02:23:21;;;;;;;70.45;41.78;;;;;;;;;;6292544;28;24477;-61
2024/01/15 02:26:23;;;;;;;68.40;40.63;;;;;;;;;;6293488;28;24415;-62
2024/01/15 02:29:25;;;;;;;67.50;40.75;;;;;;;;;;6291901;28;24431;-62
2024/01/15 02:32:27;;;;;;;68.57;42.10;;;;;;;;;;6295792;28;24427;-63
2024/01/15 02:35:28;;;;;;;70.60;41.80;;;;;;;;;;6293785;28;24425;-62
2024/01/15 02:38:32;;;;;;;67.28;40.63;;;;;;;;;;6274517;28;24450;-62
2024/01/15 02:41:33;;;;;;;70.47;41.87;;;;;;;;;;6292414;28;24430;-62
2024/01/15 02:44:35;;;;;;;67.65;41.03;;;;;;;;;;6294202;28;24425;-62
2024/01/15 02:47:37;;;;;;;68.10;40.63;;;;;;;;;;6292840;28;24676;-61
2024/01/15 02:50:39;;;;;;;64.47;39.15;;;;;;;;;;6292536;28;24419;-63
2024/01/15 02:53:42;;;;;;;66.93;41.00;;;;;;;;;;6293312;28;24473;-62
2024/01/15 02:56:44;;;;;;;64.68;39.03;;;;;;;;;;6295051;28;24656;-63
2024/01/15 02:59:45;;;;;;;64.22;39.65;;;;;;;;;;6290533;28;24434;-62
2024/01/15 03:02:47;;;;;;;67.77;40.93;;;;;;;;;;6287405;28;24997;-62
2024/01/15 03:05:49;;;;;;;67.95;40.63;;;;;;;;;;6290088;28;24431;-62
2024/01/15 03:08:52;;;;;;;69.43;41.47;;;;;;;;;;6289260;28;24423;-62
2024/01/15 03:11:54;;;;;;;71.07;42.10;;;;;;;;;;6294461;28;24625;-62
2024/01/15 03:14:55;;;;;;;70.57;41.33;;;;;;;;;;6277068;28;24851;-62
2024/01/15 03:17:57;;;;;;;65.60;39.70;;;;;;;;;;6287808;28;24423;-62
2024/01/15 03:21:01;;;;;;;66.57;40.10;;;;;;;;;;6295227;28;24473;-62
2024/01/15 03:24:04;;;;;;;73.13;43.28;;;;;;;;;;6290775;28;24430;-62
2024/01/15 03:27:06;;;;;;;71.38;42.00;;;;;;;;;;6289484;28;24544;-63
2024/01/15 03:30:09;;;;;;;75.20;42.37;;;;;;;;;;6291454;28;24423;-63
2024/01/15 03:33:11;;;;;;;71.25;42.05;;;;;;;;;;6291005;28;24434;-62
2024/01/15 03:36:12;;;;;;;68.63;40.97;;;;;;;;;;6292373;28;24462;-63
2024/01/15 03:39:15;;;;;;;69.57;41.65;;;;;;;;;;6293712;28;24465;-62
2024/01/15 03:42:17;;;;;;;68.60;41.53;;;;;;;;;;6291434;28;24894;-62
2024/01/15 03:45:19;;;;;;;71.78;40.97;;;;;;;;;;6289857;28;24435;-62
2024/01/15 03:48:21;;;;;;;67.10;40.30;;;;;;;;;;6290781;28;24431;-62
2024/01/15 03:51:22;;;;;;;67.30;40.63;;;;;;;;;;6290261;28;24416;-62
2024/01/15 03:54:26;;;;;;;70.55;40.97;;;;;;;;;;6287838;28;24431;-62
2024/01/15 03:57:28;;;;;;;68.88;41.17;;;;;;;;;;6288935;28;24418;-62
2024/01/15 04:00:30;;;;;;;66.95;40.38;;;;;;;;;;6291814;28;24816;-62
2024/01/15 04:03:31;;;;;;;71.70;42.92;;;;;;;;;;6290510;28;24828;-62
2024/01/15 04:06:33;;;;;;;72.03;42.13;;;;;;;;;;6292305;28;24831;-62
2024/01/15 04:09:37;;;;;;;70.28;40.92;;;;;;;;;;6292319;28;24430;-62
2024/01/15 04:12:39;;;;;;;72.88;41.13;;;;;;;;;;6290395;28;24811;-63
2024/01/15 04:15:41;;;;;;;69.38;40.33;;;;;;;;;;6292503;28;24505;-64
2024/01/15 04:18:42;;;;;;;77.15;42.58;;;;;;;;;;6291857;28;24671;-62
2024/01/15 04:21:44;;;;;;;70.97;40.83;;;;;;;;;;6271910;28;24469;-62
2024/01/15 04:24:47;;;;;;;67.15;40.15;;;;;;;;;;6292845;28;24426;-63
2024/01/15 04:27:49;;;;;;;68.22;40.85;;;;;;;;;;6289242;28;24418;-63
2024/01/15 04:30:51;;;;;;;68.55;40.60;;;;;;;;;;6292355;28;25061;-61
2024/01/15 04:33:52;;;;;;;69.03;40.53;;;;;;;;;;6291378;28;24839;-61
2024/01/15 04:36:54;;;;;;;69.50;39.47;;;;;;;;;;6292519;28;24433;-63
2024/01/15 04:39:57;;;;;;;65.38;38.60;;;;;;;;;;6291173;28;24435;-63
2024/01/15 04:42:59;;;;;;;63.13;36.85;;;;;;;;;;6288672;28;24785;-70
2024/01/15 04:46:00;;;;;;;66.43;37.72;;;;;;;;;;6292298;28;24422;-71
2024/01/15 04:49:02;;;;;;;67.80;39.07;;;;;;;;;;6288095;28;24565;-70
2024/01/15 04:52:04;;;;;;;69.63;40.00;;;;;;;;;;6291044;28;24438;-72
2024/01/15 04:55:09;;;;;;;70.40;40.65;;;;;;;;;;6271250;28;24454;-71
2024/01/15 04:58:10;;;;;;;71.22;41.17;;;;;;;;;;6288441;28;24443;-70
2024/01/15 05:01:12;;;;;;;70.72;41.60;;;;;;;;;;6286339;28;24477;-71
2024/01/15 05:04:14;;;;;;;67.10;40.17;;;;;;;;;;6291127;28;24426;-73
2024/01/15 05:07:15;;;;;;;70.03;40.93;;;;;;;;;;6290776;28;24437;-70
2024/01/15 05:10:19;;;;;;;71.35;40.38;;;;;;;;;;6289878;28;24676;-69
2024/01/15 05:13:20;;;;;;;70.47;41.28;;;;;;;;;;6289838;28;24500;-69
2024/01/15 05:16:22;;;;;;;69.87;40.20;;;;;;;;;;6288510;28;24419;-69
2024/01/15 05:19:24;;;;;;;70.70;41.25;;;;;;;;;;6284453;28;24431;-70
2024/01/15 05:22:26;;;;;;;75.95;42.80;;;;;;;;;;6271427;28;24423;-69
2024/01/15 05:25:29;;;;;;;70.63;40.75;;;;;;;;;;6291170;28;24407;-69
2024/01/15 05:28:31;;;;;;;73.32;40.78;;;;;;;;;;6289167;28;24425;-70
2024/01/15 05:31:32;;;;;;;71.45;41.95;;;;;;;;;;6289760;28;24813;-69
2024/01/15 05:34:34;;;;;;;70.28;40.97;;;;;;;;;;6287356;28;24712;-69
2024/01/15 05:37:36;;;;;;;73.40;41.83;;;;;;;;;;6289540;28;24678;-69
2024/01/15 05:40:39;;;;;;;74.78;41.40;;;;;;;;;;6290422;28;24823;-69
2024/01/15 05:43:41;;;;;;;76.50;43.42;;;;;;;;;;6289113;28;25072;-70
2024/01/15 05:46:43;;;;;;;76.63;42.50;;;;;;;;;;6289690;28;24816;-71
2024/01/15 05:49:44;;;;;;;72.10;42.90;;;;;;;;;;6276383;28;24470;-68
2024/01/15 05:52:46;;;;;;;75.32;42.38;;;;;;;;;;6288703;28;24839;-69
2024/01/15 05:55:49;;;;;;;77.03;43.00;;;;;;;;;;6291160;28;24418;-62
2024/01/15 05:58:51;;;;;;;76.05;42.28;;;;;;;;;;6290410;28;24465;-62
2024/01/15 06:01:53;;;;;;;73.82;42.17;;;;;;;;;;6285854;28;24820;-62
2024/01/15 06:04:54;;;;;;;75.88;43.60;;;;;;;;;;6288659;28;24414;-62
2024/01/15 06:07:56;;;;;;;73.85;42.55;;;;;;;;;;6288831;28;24419;-62
2024/01/15 06:10:59;;;;;;;72.05;41.80;;;;;;;;;;6287364;28;24913;-62
2024/01/15 06:14:01;;;;;;;74.82;42.88;;;;;;;;;;6289003;28;24429;-61
2024/01/15 06:17:03;;;;;;;78.68;44.15;;;;;;;;;;6298155;28;24418;-62
2024/01/15 06:20:05;;;;;;;75.87;44.47;;;;;;;;;;6293387;28;24510;-62
2024/01/15 06:23:07;;;;;;;76.30;43.22;;;;;;;;;;6291742;28;24426;-62
2024/01/15 06:26:12;;;;;;;76.33;43.57;;;;;;;;;;6292287;28;24423;-62
2024/01/15 06:29:14;;;;;;;76.15;43.63;;;;;;;;;;6294920;28;24427;-62
2024/01/15 06:32:16;;;;;;;78.77;44.20;;;;;;;;;;6292603;28;24423;-62
2024/01/15 06:35:17;;;;;;;76.22;43.80;;;;;;;;;;6295547;28;24437;-62
2024/01/15 06:38:19;;;;;;;80.30;44.05;;;;;;;;;;6304553;28;24473;-62
2024/01/15 06:41:22;;;;;;;76.55;43.67;;;;;;;;;;6292948;28;24434;-62
2024/01/15 06:44:24;;;;;;;77.78;44.13;;;;;;;;;;6294840;28;24422;-62
2024/01/15 06:47:26;;;;;;;80.20;43.97;;;;;;;;;;6291020;28;24553;-62
2024/01/15 06:50:27;;;;;;;77.82;44.72;;;;;;;;;;6272664;28;24431;-62
2024/01/15 06:53:29;;;;;;;73.43;43.05;;;;;;;;;;6289162;28;24423;-62
2024/01/15 06:56:32;;;;;;;78.63;44.63;;;;;;;;;;6294649;28;24450;-62
2024/01/15 06:59:35;;;;;;;87.85;49.05;;;;;;;;;;6285264;28;24430;-62
2024/01/15 07:02:36;;;;;;;85.20;47.58;;;;;;;;;;6291453;28;24465;-62
2024/01/15 07:05:38;;;;;;;81.55;46.80;;;;;;;;;;6291950;28;24456;-62
2024/01/15 07:08:41;;;;;;;84.97;47.10;;;;;;;;;;6290972;28;24457;-62
2024/01/15 07:11:47;;;;;;;80.57;46.55;;;;;;;;;;6293123;28;24426;-62
2024/01/15 07:14:49;;;;;;;77.72;45.85;;;;;;;;;;6294865;28;24887;-63
2024/01/15 07:17:50;;;;;;;78.75;46.08;;;;;;;;;;6290202;28;24434;-63
2024/01/15 07:20:52;;;;;;;83.47;47.10;;;;;;;;;;6292349;28;24948;-62
2024/01/15 07:23:54;;;;;;;78.10;45.15;;;;;;;;;;6292723;28;24426;-62
2024/01/15 07:26:57;;;;;;;80.80;46.70;;;;;;;;;;6292764;28;24430;-63
2024/01/15 07:29:59;;;;;;;76.82;45.25;;;;;;;;;;6287251;28;24419;-63
2024/01/15 07:33:00;;;;;;;91.40;50.90;;;;;;;;;;6289241;28;24718;-63
2024/01/15 07:36:02;;;;;;;79.65;45.97;;;;;;;;;;6288147;28;24863;-63
2024/01/15 07:39:04;;;;;;;84.75;46.35;;;;;;;;;;6289493;28;24415;-63
2024/01/15 07:42:08;;;;;;;81.45;46.55;;;;;;;;;;6291066;28;24805;-63
2024/01/15 07:45:10;;;;;;;81.13;46.45;;;;;;;;;;6288717;28;24619;-62
2024/01/15 07:48:12;;;;;;;79.53;44.97;;;;;;;;;;6291094;28;24425;-63
2024/01/15 07:51:14;;;;;;;76.75;45.70;;;;;;;;;;6287621;28;24431;-63
2024/01/15 07:54:16;;;;;;;77.38;45.58;;;;;;;;;;6289933;28;24434;-62
2024/01/15 07:57:19;;;;;;;80.23;46.23;;;;;;;;;;6289202;28;24765;-62
2024/01/15 08:00:21;;;;;;;79.45;46.47;;;;;;;;;;6291388;28;24800;-62
2024/01/15 08:03:22;;;;;;;73.10;42.80;;;;;;;;;;6288809;28;24485;-61
2024/01/15 08:06:24;;;;;;;71.50;43.10;;;;;;;;;;6290647;28;24415;-61
2024/01/15 08:09:26;;;;;;;73.90;43.65;;;;;;;;;;6268446;28;24423;-62
2024/01/15 08:12:29;;;;;;;72.10;41.83;;;;;;;;;;6291519;28;24427;-62
2024/01/15 08:15:31;;;;;;;67.97;41.20;;;;;;;;;;6291106;28;24641;-62
2024/01/15 08:18:32;;;;;;;65.93;41.28;;;;;;;;;;6290796;28;24426;-61
2024/01/15 08:21:34;;;;;;;66.88;40.88;;;;;;;;;;6288071;28;24431;-62
2024/01/15 08:24:36;;;;;;;66.50;40.97;;;;;;;;;;6289541;28;24419;-62
2024/01/15 08:27:39;;;;;;;65.65;40.83;;;;;;;;;;6291997;28;24422;-62
2024/01/15 08:30:40;;;;;;;65.63;40.95;;;;;;;;;;6289983;28;24642;-62
2024/01/15 08:33:42;;;;;;;63.40;40.38;;;;;;;;;;6292501;28;24953;-62
2024/01/15 08:36:44;;;;;;;62.78;39.92;;;;;;;;;;6291830;28;24669;-62
2024/01/15 08:39:46;;;;;;;62.47;39.08;;;;;;;;;;6268182;28;24427;-62
2024/01/15 08:42:49;;;;;;;62.40;39.03;;;;;;;;;;6288636;28;24431;-62
2024/01/15 08:45:50;;;;;;;63.53;38.17;;;;;;;;;;6289699;28;24778;-62
2024/01/15 08:48:52;;;;;;;65.22;39.50;;;;;;;;;;6271297;28;24431;-62
2024/01/15 08:51:54;;;;;;;65.20;38.97;;;;;;;;;;6290405;28;24664;-62
2024/01/15 08:54:56;;;;;;;69.07;40.73;;;;;;;;;;6289642;28;24523;-62
2024/01/15 08:57:59;;;;;;;71.30;40.05;;;;;;;;;;6292739;28;24671;-62
2024/01/15 09:01:01;;;;;;;63.90;39.05;;;;;;;;;;6290204;28;24430;-62
2024/01/15 09:04:03;;;;;;;58.38;38.28;;;;;;;;;;6270797;28;24796;-62
2024/01/15 09:07:05;;;;;;;61.22;37.47;;;;;;;;;;6288294;28;24494;-62
2024/01/15 09:10:08;;;;;;;54.92;35.75;;;;;;;;;;6289294;28;24825;-62
2024/01/15 09:13:11;;;;;;;53.53;35.05;;;;;;;;;;6287289;28;24838;-62
2024/01/15 09:16:12;;;;;;;50.55;34.15;;;;;;;;;;6287543;28;24466;-62
2024/01/15 09:19:14;;;;;;;52.42;33.95;;;;;;;;;;6285347;28;24466;-62
2024/01/15 09:22:18;;;;;;;48.10;32.25;;;;;;;;;;6287767;28;24410;-62
2024/01/15 09:25:20;;;;;;;46.97;32.70;;;;;;;;;;6286933;28;24439;-62
2024/01/15 09:28:23;;;;;;;47.30;31.48;;;;;;;;;;6289181;28;24630;-62
2024/01/15 09:31:25;;;;;;;44.97;30.58;;;;;;;;;;6287736;28;24498;-63
2024/01/15 09:34:27;;;;;;;42.53;29.55;;;;;;;;;;6287370;28;24625;-62
2024/01/15 09:37:29;;;;;;;42.70;29.33;;;;;;;;;;6289157;28;24450;-62
2024/01/15 09:40:33;;;;;;;39.60;27.90;;;;;;;;;;6289186;28;24525;-63
2024/01/15 09:43:38;;;;;;;45.80;30.80;;;;;;;;;;6287436;28;24498;-62
2024/01/15 09:46:41;;;;;;;46.75;31.27;;;;;;;;;;6287994;28;25119;-62
2024/01/15 09:49:42;;;;;;;52.33;34.63;;;;;;;;;;6290844;28;24501;-63
2024/01/15 09:52:45;;;;;;;56.55;36.10;;;;;;;;;;6293546;28;24502;-63
2024/01/15 09:55:48;;;;;;;53.83;34.42;;;;;;;;;;6292929;28;24835;-62
2024/01/15 09:58:52;;;;;;;49.90;33.40;;;;;;;;;;6294152;28;24434;-63
2024/01/15 10:01:55;;;;;;;48.77;32.07;;;;;;;;;;6290649;28;24453;-63
2024/01/15 10:04:56;;;;;;;53.13;34.60;;;;;;;;;;6290724;28;24446;-63
2024/01/15 10:07:58;;;;;;;50.90;33.77;;;;;;;;;;6294078;28;24423;-62
2024/01/15 10:11:00;;;;;;;47.45;32.33;;;;;;;;;;6294145;28;24423;-63
2024/01/15 10:14:04;;;;;;;48.72;32.63;;;;;;;;;;6293800;28;25111;-62
2024/01/15 10:17:14;;;;;;;43.70;30.48;;;;;;;;;;6296574;28;24427;-62
2024/01/15 10:20:16;;;;;;;41.07;28.73;;;;;;;;;;6292763;28;24827;-62
2024/01/15 10:23:18;;;;;;;45.42;31.25;;;;;;;;;;6293607;28;24630;-62
2024/01/15 10:26:19;;;;;;;48.30;32.05;;;;;;;;;;6289749;28;24805;-62
2024/01/15 10:29:22;;;;;;;46.40;30.55;;;;;;;;;;6296818;28;24422;-63
2024/01/15 10:32:24;;;;;;;37.25;26.23;;;;;;;;;;6290084;28;24668;-62
2024/01/15 10:35:28;;;;;;;40.90;27.35;;;;;;;;;;6288176;28;24424;-62
2024/01/15 10:38:30;;;;;;;35.13;25.47;;;;;;;;;;6292185;28;24415;-63
2024/01/15 10:41:31;;;;;;;34.75;24.10;;;;;;;;;;6289717;28;24641;-62
2024/01/15 10:44:34;;;;;;;30.73;23.15;;;;;;;;;;6295895;28;24422;-64
2024/01/15 10:47:36;;;;;;;32.45;22.30;;;;;;;;;;6289383;28;24472;-63
2024/01/15 10:50:38;;;;;;;32.37;22.87;;;;;;;;;;6292239;28;24424;-63
2024/01/15 10:53:41;;;;;;;30.88;22.70;;;;;;;;;;6289944;28;24438;-63
2024/01/15 10:56:43;;;;;;;29.30;21.13;;;;;;;;;;6272315;28;24837;-63
2024/01/15 10:59:46;;;;;;;30.30;21.40;;;;;;;;;;6271681;28;24423;-63
2024/01/15 11:02:48;;;;;;;26.67;19.33;;;;;;;;;;6287716;28;24430;-63
2024/01/15 11:05:50;;;;;;;24.45;18.58;;;;;;;;;;6275321;28;24423;-63
2024/01/15 11:08:53;;;;;;;25.15;18.52;;;;;;;;;;6287021;28;24797;-62
2024/01/15 11:12:08;;;;;;;26.40;19.27;;;;;;;;;;6291816;28;24478;-62
2024/01/15 11:15:20;;;;;;;26.15;19.45;;;;;;;;;;6288622;28;24451;-63
2024/01/15 11:18:22;;;;;;;26.13;20.20;;;;;;;;;;6290131;28;24525;-63
2024/01/15 11:21:25;;;;;;;25.90;18.58;;;;;;;;;;6293261;28;24430;-62
2024/01/15 11:24:40;;;;;;;24.65;17.63;;;;;;;;;;6290672;28;24481;-63
2024/01/15 11:27:43;;;;;;;22.75;16.80;;;;;;;;;;6291969;28;24861;-63
2024/01/15 11:30:47;;;;;;;23.13;17.17;;;;;;;;;;6295624;28;24827;-63
2024/01/15 11:33:51;;;;;;;23.67;17.20;;;;;;;;;;6291242;28;24521;-63
2024/01/15 11:37:02;;;;;;;22.30;16.58;;;;;;;;;;6290395;28;24611;-67
2024/01/15 11:40:04;;;;;;;19.35;14.32;;;;;;;;;;6273943;28;24441;-63
2024/01/15 11:43:09;;;;;;;18.27;13.33;;;;;;;;;;6292810;28;24755;-63
2024/01/15 11:46:13;;;;;;;18.50;13.02;;;;;;;;;;6271986;28;24831;-63
2024/01/15 11:49:25;;;;;;;17.38;13.15;;;;;;;;;;6290938;28;24735;-63
2024/01/15 11:52:27;;;;;;;18.03;12.87;;;;;;;;;;6290376;28;24430;-63
2024/01/15 11:55:30;;;;;;;15.60;12.00;;;;;;;;;;6274753;28;24418;-64
2024/01/15 11:58:33;;;;;;;15.60;11.88;;;;;;;;;;6291485;28;24422;-63
2024/01/15 12:01:36;;;;;;;17.92;13.15;;;;;;;;;;6290885;28;24457;-63
2024/01/15 12:04:39;;;;;;;19.25;14.95;;;;;;;;;;6282555;28;24594;-63
2024/01/15 12:07:41;;;;;;;19.30;14.60;;;;;;;;;;6287703;28;24686;-64
2024/01/15 12:10:43;;;;;;;20.30;15.17;;;;;;;;;;6292774;28;24413;-63
2024/01/15 12:13:45;;;;;;;20.52;14.95;;;;;;;;;;6289316;28;24593;-63
2024/01/15 12:16:48;;;;;;;17.98;14.05;;;;;;;;;;6291239;28;24429;-62
2024/01/15 12:19:50;;;;;;;18.00;12.57;;;;;;;;;;6287192;28;24668;-62
2024/01/15 12:22:52;;;;;;;14.48;11.50;;;;;;;;;;6269295;28;24457;-63
2024/01/15 12:25:53;;;;;;;15.07;11.35;;;;;;;;;;6289558;28;24430;-63
2024/01/15 12:28:56;;;;;;;14.85;11.43;;;;;;;;;;6288350;28;24645;-63
2024/01/15 12:31:59;;;;;;;15.82;12.10;;;;;;;;;;6287315;28;24423;-64
2024/01/15 12:35:01;;;;;;;14.98;11.75;;;;;;;;;;6286256;28;24431;-63
2024/01/15 12:38:03;;;;;;;16.63;12.10;;;;;;;;;;6287688;28;24618;-63
2024/01/15 12:41:05;;;;;;;14.98;11.52;;;;;;;;;;6289571;28;24426;-65
2024/01/15 12:44:08;;;;;;;18.70;12.95;;;;;;;;;;6286540;28;24419;-64
2024/01/15 12:47:11;;;;;;;17.02;12.57;;;;;;;;;;6288424;28;24415;-63
2024/01/15 12:50:14;;;;;;;17.13;13.30;;;;;;;;;;6285006;28;24415;-63
2024/01/15 12:53:17;;;;;;;15.77;12.45;;;;;;;;;;6291563;28;24422;-64
2024/01/15 12:56:18;;;;;;;17.30;11.80;;;;;;;;;;6288981;28;24668;-63
2024/01/15 12:59:20;;;;;;;16.33;11.68;;;;;;;;;;6289035;28;24874;-63
2024/01/15 13:02:24;;;;;;;17.95;13.25;;;;;;;;;;6286383;28;24834;-62
2024/01/15 13:05:27;;;;;;;15.30;11.55;;;;;;;;;;6287142;28;24599;-63
2024/01/15 13:08:29;;;;;;;16.50;11.45;;;;;;;;;;6287668;28;24422;-63
2024/01/15 13:11:31;;;;;;;15.70;11.35;;;;;;;;;;6289997;28;24419;-63
2024/01/15 13:14:33;;;;;;;16.20;11.35;;;;;;;;;;6308221;28;24838;-63
2024/01/15 13:17:37;;;;;;;15.95;11.48;;;;;;;;;;6289885;28;24439;-63
2024/01/15 13:20:38;;;;;;;16.00;11.52;;;;;;;;;;6288670;28;24417;-63
2024/01/15 13:23:40;;;;;;;15.13;10.95;;;;;;;;;;6290990;28;24442;-61
2024/01/15 13:26:42;;;;;;;17.75;11.80;;;;;;;;;;6295887;28;24831;-62
2024/01/15 13:29:44;;;;;;;15.85;11.55;;;;;;;;;;6294225;28;24629;-65
2024/01/15 13:32:47;;;;;;;14.38;10.98;;;;;;;;;;6294527;28;24519;-65
2024/01/15 13:35:50;;;;;;;13.77;10.88;;;;;;;;;;6291536;28;24805;-62
2024/01/15 13:38:52;;;;;;;15.50;11.43;;;;;;;;;;6292907;28;24495;-63
2024/01/15 13:41:53;;;;;;;15.63;11.63;;;;;;;;;;6291956;28;24419;-63
2024/01/15 13:44:55;;;;;;;14.35;10.80;;;;;;;;;;6293926;28;24472;-63
2024/01/15 13:47:58;;;;;;;12.43;9.57;;;;;;;;;;6298478;28;24415;-63
2024/01/15 13:51:00;;;;;;;13.15;9.40;;;;;;;;;;6294652;28;24828;-63
2024/01/15 13:54:04;;;;;;;14.13;10.38;;;;;;;;;;6298083;28;24726;-65
2024/01/15 13:57:05;;;;;;;11.45;9.63;;;;;;;;;;6294814;28;24454;-64
2024/01/15 14:00:11;;;;;;;10.63;8.65;;;;;;;;;;6294387;28;24423;-64
2024/01/15 14:03:14;;;;;;;12.20;8.83;;;;;;;;;;6294233;28;24423;-64
2024/01/15 14:06:16;;;;;;;9.63;8.25;;;;;;;;;;6296441;28;24804;-64
2024/01/15 14:09:18;;;;;;;14.05;9.23;;;;;;;;;;6279859;28;24723;-64
2024/01/15 14:12:20;;;;;;;12.75;8.45;;;;;;;;;;6295421;28;24431;-64
2024/01/15 14:15:22;;;;;;;12.68;8.65;;;;;;;;;;6273851;28;24521;-64
2024/01/15 14:18:25;;;;;;;11.23;8.47;;;;;;;;;;6303184;28;24828;-63
2024/01/15 14:21:27;;;;;;;11.23;8.52;;;;;;;;;;6292809;28;24568;-63
2024/01/15 14:24:28;;;;;;;11.88;8.75;;;;;;;;;;6296688;28;24453;-63
2024/01/15 14:27:30;;;;;;;11.13;8.45;;;;;;;;;;6293579;28;24644;-62
2024/01/15 14:30:32;;;;;;;11.25;8.60;;;;;;;;;;6295003;28;24415;-63
2024/01/15 14:33:35;;;;;;;12.05;8.75;;;;;;;;;;6294593;28;24884;-63
2024/01/15 14:36:38;;;;;;;10.93;8.32;;;;;;;;;;6290182;28;24427;-63
2024/01/15 14:39:40;;;;;;;10.35;7.93;;;;;;;;;;6295545;28;24431;-63
2024/01/15 14:42:42;;;;;;;11.23;8.25;;;;;;;;;;6292974;28;24431;-63
2024/01/15 14:45:44;;;;;;;10.57;7.82;;;;;;;;;;6295960;28;24472;-62
2024/01/15 14:48:47;;;;;;;21.50;15.07;;;;;;;;;;6295415;28;24468;-63
2024/01/15 14:51:49;;;;;;;45.00;25.48;;;;;;;;;;6294037;28;24430;-62
2024/01/15 14:54:51;;;;;;;43.30;25.10;;;;;;;;;;6296911;28;24426;-62
2024/01/15 14:57:53;;;;;;;48.43;27.13;;;;;;;;;;6293025;28;24438;-63
2024/01/15 15:00:56;;;;;;;60.03;32.63;;;;;;;;;;6293216;28;24423;-62
2024/01/15 15:03:59;;;;;;;54.17;31.80;;;;;;;;;;6277373;28;24613;-63
2024/01/15 15:07:01;;;;;;;62.47;36.45;;;;;;;;;;6291906;28;24824;-63
2024/01/15 15:10:04;;;;;;;39.10;24.75;;;;;;;;;;6277052;28;24423;-63
2024/01/15 15:13:06;;;;;;;14.75;10.38;;;;;;;;;;6293350;28;24434;-63
2024/01/15 15:16:07;;;;;;;14.68;9.52;;;;;;;;;;6295663;28;24657;-63
2024/01/15 15:19:10;;;;;;;13.02;9.20;;;;;;;;;;6292845;28;24994;-64
2024/01/15 15:22:12;;;;;;;11.70;8.70;;;;;;;;;;6294690;28;24787;-64
2024/01/15 15:25:14;;;;;;;12.43;8.52;;;;;;;;;;6291331;28;24473;-64
2024/01/15 15:28:16;;;;;;;13.80;9.05;;;;;;;;;;6292612;28;24473;-63
2024/01/15 15:31:18;;;;;;;12.18;8.93;;;;;;;;;;6291907;28;24648;-63
2024/01/15 15:34:21;;;;;;;11.23;8.50;;;;;;;;;;6263512;28;24948;-64
2024/01/15 15:37:22;;;;;;;14.00;8.95;;;;;;;;;;6266592;28;24422;-66
2024/01/15 15:40:24;;;;;;;12.07;8.88;;;;;;;;;;6267831;28;24422;-64
2024/01/15 15:43:26;;;;;;;13.23;8.50;;;;;;;;;;6267731;28;24419;-63
2024/01/15 15:46:28;;;;;;;13.60;8.77;;;;;;;;;;6266234;28;24875;-62
2024/01/15 15:49:31;;;;;;;13.25;9.48;;;;;;;;;;6265798;28;24431;-64
2024/01/15 15:52:34;;;;;;;11.52;8.75;;;;;;;;;;6264380;28;24812;-63
2024/01/15 15:55:36;;;;;;;13.85;9.02;;;;;;;;;;6267843;28;24430;-61
2024/01/15 15:58:38;;;;;;;12.23;8.90;;;;;;;;;;6263191;28;24881;-63
2024/01/15 16:01:40;;;;;;;13.15;8.75;;;;;;;;;;6264777;28;24469;-64
2024/01/15 16:04:43;;;;;;;13.68;9.05;;;;;;;;;;6265975;28;24427;-64
2024/01/15 16:07:45;;;;;;;12.82;9.23;;;;;;;;;;6264877;28;24645;-64
2024/01/15 16:10:48;;;;;;;13.55;8.95;;;;;;;;;;6262413;28;24450;-64
2024/01/15 16:13:50;;;;;;;15.00;9.73;;;;;;;;;;6267572;28;24473;-62
2024/01/15 16:16:56;;;;;;;14.57;9.68;;;;;;;;;;6263438;28;24423;-64
2024/01/15 16:19:59;;;;;;;14.48;10.40;;;;;;;;;;6265379;28;24855;-62
2024/01/15 16:23:00;;;;;;;16.55;10.52;;;;;;;;;;6266423;28;24458;-63
2024/01/15 16:26:02;;;;;;;14.07;9.73;;;;;;;;;;6265749;28;24430;-65
2024/01/15 16:29:04;;;;;;;15.75;10.05;;;;;;;;;;6266967;28;24623;-64
2024/01/15 16:32:07;;;;;;;14.82;10.05;;;;;;;;;;6261744;28;24622;-64
2024/01/15 16:35:10;;;;;;;14.38;9.18;;;;;;;;;;6280927;28;24628;-70
2024/01/15 16:38:12;;;;;;;15.68;10.65;;;;;;;;;;6289071;28;24474;-69
2024/01/15 16:41:14;;;;;;;16.08;10.43;;;;;;;;;;6289205;28;24885;-70
2024/01/15 16:44:15;;;;;;;18.70;11.10;;;;;;;;;;6291473;28;24851;-70
2024/01/15 16:47:17;;;;;;;19.52;11.05;;;;;;;;;;6291033;28;24434;-71
2024/01/15 16:50:21;;;;;;;15.68;10.75;;;;;;;;;;6290776;28;24617;-71
2024/01/15 16:53:22;;;;;;;18.65;11.18;;;;;;;;;;6277776;28;24494;-71
2024/01/15 16:56:24;;;;;;;16.65;11.57;;;;;;;;;;6292564;28;24422;-71
2024/01/15 16:59:26;;;;;;;14.82;10.57;;;;;;;;;;6289815;28;24992;-71
2024/01/15 17:02:27;;;;;;;16.25;11.18;;;;;;;;;;6289411;28;24817;-70
2024/01/15 17:05:31;;;;;;;16.30;10.93;;;;;;;;;;6288780;28;24472;-70
2024/01/15 17:08:32;;;;;;;17.73;11.77;;;;;;;;;;6291910;28;24788;-71
2024/01/15 17:11:34;;;;;;;17.70;11.32;;;;;;;;;;6290187;28;24470;-70
2024/01/15 17:14:36;;;;;;;17.40;11.48;;;;;;;;;;6291272;28;24826;-71
2024/01/15 17:17:38;;;;;;;19.27;11.70;;;;;;;;;;6288268;28;24463;-72
2024/01/15 17:20:44;;;;;;;18.17;11.82;;;;;;;;;;6289216;28;24667;-69
2024/01/15 17:23:46;;;;;;;18.95;12.90;;;;;;;;;;6290626;28;24461;-70
2024/01/15 17:26:48;;;;;;;22.23;13.60;;;;;;;;;;6288475;28;24494;-71
2024/01/15 17:29:51;;;;;;;22.70;15.52;;;;;;;;;;6288143;28;24429;-70
2024/01/15 17:32:53;;;;;;;26.52;17.45;;;;;;;;;;6289720;28;25058;-70
2024/01/15 17:35:58;;;;;;;28.90;19.13;;;;;;;;;;6292831;28;24433;-70
2024/01/15 17:39:01;;;;;;;32.30;20.25;;;;;;;;;;6291651;28;24500;-71
2024/01/15 17:42:04;;;;;;;31.70;19.92;;;;;;;;;;6304615;28;24649;-70